createdAt,value
2019-06-01T00:01:07.181Z,19.98
2019-06-01T00:03:35.643Z,21.25
2019-06-01T00:06:04.103Z,20.15
2019-06-01T00:08:32.586Z,19.77
2019-06-01T00:11:01.070Z,20.48
2019-06-01T00:13:29.531Z,22.87
2019-06-01T00:15:58.025Z,20.50
2019-06-01T00:18:26.473Z,19.35
2019-06-01T00:20:55.030Z,19.23
2019-06-01T00:23:23.661Z,19.12
2019-06-01T00:25:52.903Z,19.77
2019-06-01T00:28:21.566Z,18.03
2019-06-01T00:30:50.041Z,17.85
2019-06-01T00:33:18.566Z,18.65
2019-06-01T00:35:47.450Z,17.87
2019-06-01T00:38:16.128Z,15.63
2019-06-01T00:40:45.766Z,16.25
2019-06-01T00:43:14.416Z,15.30
2019-06-01T00:45:42.919Z,16.05
2019-06-01T00:48:11.466Z,15.72
2019-06-01T00:50:39.962Z,15.83
2019-06-01T00:53:08.417Z,16.75
2019-06-01T00:55:36.924Z,15.53
2019-06-01T00:58:05.385Z,14.53
2019-06-01T01:00:43.313Z,15.70
2019-06-01T01:03:04.155Z,14.23
2019-06-01T01:05:32.626Z,15.93
2019-06-01T01:08:01.205Z,14.78
2019-06-01T01:10:29.839Z,16.65
2019-06-01T01:13:09.207Z,16.50
2019-06-01T01:15:37.812Z,16.20
2019-06-01T01:18:08.110Z,16.73
2019-06-01T01:23:06.214Z,17.27
2019-06-01T01:25:34.903Z,19.55
2019-06-01T01:28:03.766Z,18.67
2019-06-01T01:30:32.355Z,19.12
2019-06-01T01:33:00.857Z,19.30
2019-06-01T01:35:29.352Z,17.52
2019-06-01T01:37:58.951Z,19.77
2019-06-01T01:40:28.638Z,17.92
2019-06-01T01:42:57.153Z,18.40
2019-06-01T01:45:25.624Z,18.73
2019-06-01T01:47:55.054Z,17.10
2019-06-01T01:50:25.983Z,20.77
2019-06-01T01:52:54.804Z,17.85
2019-06-01T01:55:23.399Z,16.70
2019-06-01T01:57:53.198Z,16.93
2019-06-01T02:00:37.186Z,16.85
2019-06-01T02:03:07.043Z,19.15
2019-06-01T02:05:35.631Z,20.60
2019-06-01T02:08:04.654Z,17.40
2019-06-01T02:10:33.174Z,16.67
2019-06-01T02:13:02.177Z,17.48
2019-06-01T02:15:31.108Z,17.40
2019-06-01T02:18:00.658Z,16.80
2019-06-01T02:20:29.411Z,18.45
2019-06-01T02:22:58.958Z,17.75
2019-06-01T02:25:27.512Z,18.02
2019-06-01T02:27:57.312Z,16.87
2019-06-01T02:30:26.013Z,17.40
2019-06-01T02:32:56.217Z,16.95
2019-06-01T02:35:24.724Z,17.67
2019-06-01T02:37:54.715Z,16.20
2019-06-01T02:40:25.211Z,18.35
2019-06-01T02:45:22.545Z,16.95
2019-06-01T02:47:51.054Z,16.95
2019-06-01T02:50:19.844Z,18.62
2019-06-01T02:52:48.321Z,17.60
2019-06-01T02:55:19.922Z,17.50
2019-06-01T02:57:48.550Z,16.62
2019-06-01T03:00:19.613Z,17.92
2019-06-01T03:02:48.596Z,15.72
2019-06-01T03:05:18.835Z,18.87
2019-06-01T03:07:49.170Z,16.65
2019-06-01T03:12:45.993Z,17.80
2019-06-01T03:15:16.330Z,16.15
2019-06-01T03:17:50.308Z,15.95
2019-06-01T03:20:19.108Z,16.02
2019-06-01T03:22:50.708Z,15.63
2019-06-01T03:25:19.393Z,16.20
2019-06-01T03:27:49.735Z,15.95
2019-06-01T03:30:37.716Z,17.67
2019-06-01T03:33:09.913Z,16.00
2019-06-01T03:35:36.595Z,16.60
2019-06-01T03:38:05.114Z,16.48
2019-06-01T03:40:33.618Z,15.88
2019-06-01T03:43:02.355Z,17.92
2019-06-01T03:45:31.007Z,17.25
2019-06-01T03:48:00.510Z,18.32
2019-06-01T03:50:29.131Z,22.17
2019-06-01T03:52:57.721Z,24.18
2019-06-01T03:55:26.183Z,22.58
2019-06-01T03:57:54.658Z,25.95
2019-06-01T04:00:23.194Z,24.55
2019-06-01T04:02:51.651Z,25.27
2019-06-01T04:05:20.176Z,26.12
2019-06-01T04:07:48.617Z,25.32
2019-06-01T04:10:17.100Z,29.18
2019-06-01T04:12:45.659Z,28.95
2019-06-01T04:15:16.703Z,26.57
2019-06-01T04:17:44.759Z,28.17
2019-06-01T04:20:13.292Z,26.62
2019-06-01T04:22:41.749Z,27.73
2019-06-01T04:25:10.399Z,27.75
2019-06-01T04:27:38.861Z,28.07
2019-06-01T04:30:09.307Z,27.67
2019-06-01T04:32:49.504Z,28.77
2019-06-01T04:35:09.014Z,26.70
2019-06-01T04:37:37.654Z,26.47
2019-06-01T04:40:07.476Z,28.15
2019-06-01T04:42:36.022Z,27.93
2019-06-01T04:45:09.153Z,26.85
2019-06-01T04:47:38.155Z,27.67
2019-06-01T04:50:07.046Z,27.67
2019-06-01T04:52:35.567Z,27.55
2019-06-01T04:55:09.076Z,27.75
2019-06-01T04:57:37.650Z,28.17
2019-06-01T05:00:19.809Z,27.93
2019-06-01T05:02:38.183Z,27.98
2019-06-01T05:05:07.595Z,27.85
2019-06-01T05:07:36.050Z,28.30
2019-06-01T05:10:07.691Z,27.32
2019-06-01T05:12:36.389Z,29.18
2019-06-01T05:15:08.130Z,29.30
2019-06-01T05:17:36.601Z,27.55
2019-06-01T05:20:06.557Z,28.45
2019-06-01T05:22:35.213Z,29.27
2019-06-01T05:25:05.006Z,28.30
2019-06-01T05:27:33.493Z,29.15
2019-06-01T05:30:01.993Z,29.18
2019-06-01T05:32:30.545Z,28.23
2019-06-01T05:34:58.988Z,27.00
2019-06-01T05:37:27.523Z,27.32
2019-06-01T05:39:55.969Z,28.98
2019-06-01T05:42:24.419Z,27.90
2019-06-01T05:44:52.936Z,26.15
2019-06-01T05:47:22.450Z,26.87
2019-06-01T05:49:51.128Z,24.92
2019-06-01T05:52:19.662Z,24.00
2019-06-01T05:54:48.104Z,24.72
2019-06-01T05:57:16.842Z,25.27
2019-06-01T05:59:45.536Z,24.23
2019-06-01T06:02:14.963Z,23.65
2019-06-01T06:04:43.728Z,23.73
2019-06-01T06:07:12.824Z,23.85
2019-06-01T06:09:41.525Z,24.32
2019-06-01T06:12:11.257Z,24.00
2019-06-01T06:14:39.907Z,23.00
2019-06-01T06:17:08.361Z,22.55
2019-06-01T06:19:36.891Z,23.12
2019-06-01T06:22:05.340Z,21.75
2019-06-01T06:24:33.800Z,21.35
2019-06-01T06:27:02.311Z,22.70
2019-06-01T06:29:30.778Z,22.80
2019-06-01T06:31:59.227Z,22.30
2019-06-01T06:34:27.750Z,23.12
2019-06-01T06:36:56.211Z,21.60
2019-06-01T06:39:24.673Z,20.75
2019-06-01T06:41:53.329Z,21.95
2019-06-01T06:44:22.663Z,22.50
2019-06-01T06:46:51.311Z,22.80
2019-06-01T06:49:21.295Z,23.20
2019-06-01T06:51:50.002Z,20.37
2019-06-01T06:54:19.728Z,20.48
2019-06-01T06:56:48.525Z,21.68
2019-06-01T06:59:18.304Z,19.12
2019-06-01T07:01:47.040Z,19.10
2019-06-01T07:04:15.601Z,18.77
2019-06-01T07:06:44.163Z,18.02
2019-06-01T07:09:12.623Z,18.20
2019-06-01T07:11:41.147Z,17.32
2019-06-01T07:14:09.786Z,17.82
2019-06-01T07:16:38.272Z,17.02
2019-06-01T07:19:06.945Z,15.00
2019-06-01T07:21:35.749Z,15.30
2019-06-01T07:24:04.617Z,15.68
2019-06-01T07:26:33.081Z,15.60
2019-06-01T07:29:01.611Z,14.33
2019-06-01T07:31:30.165Z,13.85
2019-06-01T07:33:58.703Z,13.78
2019-06-01T07:36:28.674Z,13.20
2019-06-01T07:38:57.242Z,13.95
2019-06-01T07:41:26.692Z,12.98
2019-06-01T07:43:55.208Z,12.20
2019-06-01T07:46:24.822Z,11.83
2019-06-01T07:48:53.535Z,12.50
2019-06-01T07:51:23.108Z,11.00
2019-06-01T07:53:52.027Z,11.30
2019-06-01T07:56:20.511Z,10.40
2019-06-01T07:58:49.054Z,11.70
2019-06-01T08:01:17.541Z,11.90
2019-06-01T08:03:46.028Z,10.88
2019-06-01T08:06:14.582Z,12.15
2019-06-01T08:08:43.029Z,11.48
2019-06-01T08:11:11.576Z,11.83
2019-06-01T08:13:40.100Z,11.03
2019-06-01T08:16:08.546Z,10.25
2019-06-01T08:18:37.145Z,11.10
2019-06-01T08:21:05.597Z,8.83
2019-06-01T08:23:34.128Z,8.38
2019-06-01T08:26:02.731Z,8.55
2019-06-01T08:28:31.272Z,8.43
2019-06-01T08:31:00.608Z,8.60
2019-06-01T08:33:32.897Z,8.20
2019-06-01T08:35:59.355Z,8.10
2019-06-01T08:38:27.861Z,7.95
2019-06-01T08:40:56.412Z,6.55
2019-06-01T08:43:25.483Z,7.35
2019-06-01T08:45:54.145Z,8.23
2019-06-01T08:48:23.685Z,7.53
2019-06-01T08:50:52.331Z,6.67
2019-06-01T08:53:20.822Z,6.55
2019-06-01T08:55:49.407Z,4.92
2019-06-01T08:58:17.940Z,5.80
2019-06-01T09:00:46.459Z,5.97
2019-06-01T09:03:15.045Z,5.53
2019-06-01T09:05:43.513Z,6.40
2019-06-01T09:08:12.046Z,6.58
2019-06-01T09:10:40.549Z,6.25
2019-06-01T09:13:09.006Z,5.75
2019-06-01T09:15:37.527Z,5.90
2019-06-01T09:18:06.039Z,5.70
2019-06-01T09:20:38.395Z,5.05
2019-06-01T09:25:32.348Z,5.47
2019-06-01T09:28:00.982Z,5.28
2019-06-01T09:30:29.902Z,5.67
2019-06-01T09:32:58.544Z,5.28
2019-06-01T09:35:46.040Z,5.62
2019-06-01T09:40:27.275Z,5.58
2019-06-01T09:45:23.685Z,6.25
2019-06-01T09:47:52.156Z,5.10
2019-06-01T09:50:20.677Z,5.58
2019-06-01T09:52:49.182Z,5.22
2019-06-01T09:55:17.773Z,5.53
2019-06-01T09:57:46.301Z,6.47
2019-06-01T10:00:15.361Z,5.85
2019-06-01T10:02:43.821Z,6.08
2019-06-01T10:05:12.683Z,5.05
2019-06-01T10:07:41.600Z,5.87
2019-06-01T10:10:10.674Z,4.83
2019-06-01T10:12:39.185Z,5.08
2019-06-01T10:15:08.434Z,6.83
2019-06-01T10:17:37.186Z,6.10
2019-06-01T10:20:09.956Z,4.78
2019-06-01T10:22:39.603Z,4.60
2019-06-01T10:25:08.633Z,4.90
2019-06-01T10:27:37.075Z,4.45
2019-06-01T10:30:10.023Z,5.28
2019-06-01T10:32:39.798Z,5.17
2019-06-01T10:35:09.040Z,5.87
2019-06-01T10:37:37.719Z,4.92
2019-06-01T10:40:08.147Z,6.03
2019-06-01T10:42:38.007Z,4.83
2019-06-01T10:45:09.094Z,4.72
2019-06-01T10:47:38.245Z,4.20
2019-06-01T10:50:07.430Z,4.67
2019-06-01T10:52:36.307Z,4.92
2019-06-01T10:55:06.944Z,5.12
2019-06-01T10:57:36.620Z,4.97
2019-06-01T11:00:15.111Z,5.05
2019-06-01T11:02:43.568Z,5.28
2019-06-01T11:05:13.335Z,4.70
2019-06-01T11:07:42.975Z,4.45
2019-06-01T11:10:12.219Z,4.90
2019-06-01T11:12:41.120Z,4.58
2019-06-01T11:15:10.233Z,4.62
2019-06-01T11:17:39.210Z,5.15
2019-06-01T11:20:08.803Z,4.97
2019-06-01T11:22:37.654Z,4.55
2019-06-01T11:25:07.350Z,4.70
2019-06-01T11:27:35.843Z,5.00
2019-06-01T11:30:09.038Z,5.08
2019-06-01T11:32:39.442Z,4.92
2019-06-01T11:35:09.437Z,4.87
2019-06-01T11:40:07.673Z,4.75
2019-06-01T11:42:36.897Z,4.90
2019-06-01T11:45:07.449Z,4.45
2019-06-01T11:47:36.777Z,4.05
2019-06-01T11:50:07.229Z,3.70
2019-06-01T11:52:36.905Z,3.92
2019-06-01T11:57:37.493Z,3.90
2019-06-01T12:00:12.178Z,3.90
2019-06-01T12:02:41.780Z,3.58
2019-06-01T12:05:10.805Z,3.90
2019-06-01T12:07:39.964Z,3.87
2019-06-01T12:10:09.739Z,3.77
2019-06-01T12:12:38.412Z,3.72
2019-06-01T12:15:07.679Z,3.45
2019-06-01T12:17:36.553Z,3.10
2019-06-01T12:20:09.362Z,3.83
2019-06-01T12:22:38.810Z,3.27
2019-06-01T12:25:07.697Z,3.10
2019-06-01T12:27:37.305Z,3.42
2019-06-01T12:30:08.319Z,3.50
2019-06-01T12:32:37.914Z,3.90
2019-06-01T12:35:10.087Z,2.90
2019-06-01T12:37:56.177Z,3.77
2019-06-01T12:40:09.419Z,3.27
2019-06-01T12:42:37.899Z,3.10
2019-06-01T12:45:07.352Z,3.05
2019-06-01T12:47:35.883Z,2.72
2019-06-01T12:50:06.294Z,3.40
2019-06-01T12:52:34.891Z,2.27
2019-06-01T12:55:03.718Z,2.67
2019-06-01T12:57:32.174Z,2.98
2019-06-01T13:00:00.678Z,2.90
2019-06-01T13:02:29.156Z,2.62
2019-06-01T13:04:57.673Z,2.72
2019-06-01T13:07:26.149Z,2.95
2019-06-01T13:09:54.643Z,2.40
2019-06-01T13:12:23.128Z,2.90
2019-06-01T13:14:52.177Z,2.50
2019-06-01T13:17:20.870Z,2.62
2019-06-01T13:19:49.591Z,2.37
2019-06-01T13:22:18.215Z,2.72
2019-06-01T13:24:47.881Z,2.77
2019-06-01T13:29:44.287Z,2.58
2019-06-01T13:32:12.754Z,2.95
2019-06-01T13:34:42.509Z,2.75
2019-06-01T13:37:11.264Z,2.77
2019-06-01T13:39:39.730Z,2.37
2019-06-01T13:42:08.244Z,2.58
2019-06-01T13:44:36.706Z,2.67
2019-06-01T13:47:05.228Z,2.85
2019-06-01T13:49:33.782Z,3.00
2019-06-01T13:52:02.224Z,2.60
2019-06-01T13:54:30.687Z,2.20
2019-06-01T13:56:59.237Z,2.30
2019-06-01T13:59:27.685Z,2.22
2019-06-01T14:01:56.194Z,1.77
2019-06-01T14:04:24.660Z,2.20
2019-06-01T14:06:53.218Z,2.50
2019-06-01T14:09:22.331Z,2.30
2019-06-01T14:11:51.437Z,2.60
2019-06-01T14:14:20.007Z,2.20
2019-06-01T14:16:49.498Z,2.17
2019-06-01T14:21:45.980Z,2.33
2019-06-01T14:24:14.492Z,2.42
2019-06-01T14:26:43.163Z,2.10
2019-06-01T14:29:11.615Z,2.80
2019-06-01T14:31:40.193Z,2.12
2019-06-01T14:34:08.655Z,1.92
2019-06-01T14:36:37.175Z,2.17
2019-06-01T14:39:07.612Z,2.10
2019-06-01T14:41:36.062Z,2.33
2019-06-01T14:44:04.878Z,2.58
2019-06-01T14:46:33.398Z,2.58
2019-06-01T14:49:01.837Z,2.42
2019-06-01T14:51:30.299Z,2.52
2019-06-01T14:53:59.011Z,2.30
2019-06-01T14:56:27.593Z,2.40
2019-06-01T14:58:56.058Z,2.10
2019-06-01T15:01:32.448Z,2.67
2019-06-01T15:03:54.803Z,2.72
2019-06-01T15:06:23.256Z,2.60
2019-06-01T15:09:13.104Z,2.37
2019-06-01T15:11:21.925Z,2.42
2019-06-01T15:13:50.413Z,2.65
2019-06-01T15:16:18.952Z,2.30
2019-06-01T15:18:47.473Z,1.92
2019-06-01T15:21:15.912Z,2.40
2019-06-01T15:23:44.429Z,2.17
2019-06-01T15:26:12.889Z,2.10
2019-06-01T15:28:41.433Z,2.25
2019-06-01T15:31:10.014Z,2.30
2019-06-01T15:33:38.540Z,2.42
2019-06-01T15:36:06.978Z,2.00
2019-06-01T15:38:35.476Z,2.20
2019-06-01T15:41:04.097Z,1.90
2019-06-01T15:43:32.555Z,2.08
2019-06-01T15:46:02.079Z,1.50
2019-06-01T15:51:02.304Z,1.70
2019-06-01T15:53:28.708Z,1.92
2019-06-01T15:55:59.103Z,1.72
2019-06-01T15:58:27.810Z,1.60
2019-06-01T16:00:56.768Z,1.82
2019-06-01T16:03:25.463Z,1.75
2019-06-01T16:05:54.984Z,1.98
2019-06-01T16:08:23.677Z,1.45
2019-06-01T16:10:53.131Z,1.70
2019-06-01T16:13:21.623Z,1.60
2019-06-01T16:15:50.087Z,2.10
2019-06-01T16:18:18.570Z,1.65
2019-06-01T16:20:48.195Z,1.90
2019-06-01T16:23:16.699Z,1.50
2019-06-01T16:25:52.324Z,2.10
2019-06-01T16:28:15.321Z,2.22
2019-06-01T16:30:43.915Z,2.25
2019-06-01T16:33:12.439Z,1.87
2019-06-01T16:35:40.913Z,1.82
2019-06-01T16:38:09.421Z,1.70
2019-06-01T16:40:37.957Z,1.85
2019-06-01T16:43:06.461Z,1.80
2019-06-01T16:45:34.905Z,1.75
2019-06-01T16:48:03.764Z,2.27
2019-06-01T16:50:32.431Z,2.00
2019-06-01T16:53:02.135Z,2.10
2019-06-01T16:55:31.551Z,2.02
2019-06-01T16:58:01.245Z,2.35
2019-06-01T17:02:58.468Z,2.08
2019-06-01T17:05:27.168Z,1.75
2019-06-01T17:07:56.645Z,2.12
2019-06-01T17:10:26.671Z,2.33
2019-06-01T17:12:56.790Z,2.20
2019-06-01T17:15:25.446Z,2.20
2019-06-01T17:17:54.008Z,2.37
2019-06-01T17:20:43.234Z,2.80
2019-06-01T17:23:26.365Z,3.42
2019-06-01T17:25:41.913Z,4.42
2019-06-01T17:28:10.567Z,2.70
2019-06-01T17:30:39.357Z,3.25
2019-06-01T17:33:08.569Z,3.17
2019-06-01T17:35:37.643Z,2.80
2019-06-01T17:38:07.284Z,2.40
2019-06-01T17:43:06.701Z,2.20
2019-06-01T17:45:36.050Z,2.02
2019-06-01T17:48:19.436Z,2.20
2019-06-01T17:50:35.864Z,3.85
2019-06-01T17:53:04.806Z,2.50
2019-06-01T17:55:35.644Z,2.30
2019-06-01T17:58:05.598Z,2.60
2019-06-01T18:00:34.480Z,2.50
2019-06-01T18:03:03.572Z,1.98
2019-06-01T18:05:32.256Z,2.30
2019-06-01T18:08:03.743Z,2.00
2019-06-01T18:10:31.232Z,1.90
2019-06-01T18:12:59.722Z,2.08
2019-06-01T18:15:28.278Z,1.80
2019-06-01T18:17:57.014Z,2.22
2019-06-01T18:20:25.543Z,2.00
2019-06-01T18:22:54.003Z,1.85
2019-06-01T18:25:25.340Z,2.62
2019-06-01T18:27:54.088Z,2.25
2019-06-01T18:30:23.423Z,2.08
2019-06-01T18:32:52.702Z,2.30
2019-06-01T18:35:21.260Z,2.35
2019-06-01T18:37:49.774Z,2.70
2019-06-01T18:40:21.497Z,2.47
2019-06-01T18:42:51.672Z,2.40
2019-06-01T18:45:20.531Z,2.37
2019-06-01T18:47:49.430Z,2.37
2019-06-01T18:50:18.718Z,2.20
2019-06-01T18:52:47.212Z,2.47
2019-06-01T18:55:15.892Z,3.08
2019-06-01T18:57:47.501Z,2.62
2019-06-01T19:00:16.590Z,2.72
2019-06-01T19:02:45.297Z,2.87
2019-06-01T19:05:15.433Z,2.90
2019-06-01T19:07:44.103Z,2.70
2019-06-01T19:10:15.659Z,3.02
2019-06-01T19:12:44.291Z,3.58
2019-06-01T19:15:25.349Z,3.02
2019-06-01T19:17:43.485Z,3.25
2019-06-01T19:20:12.962Z,2.87
2019-06-01T19:22:41.443Z,3.50
2019-06-01T19:25:11.249Z,3.33
2019-06-01T19:30:08.989Z,3.80
2019-06-01T19:32:37.765Z,3.83
2019-06-01T19:35:07.565Z,4.20
2019-06-01T19:37:38.432Z,5.53
2019-06-01T19:40:09.317Z,6.78
2019-06-01T19:42:37.875Z,6.75
2019-06-01T19:45:13.921Z,7.03
2019-06-01T19:47:37.754Z,7.95
2019-06-01T19:50:08.517Z,6.47
2019-06-01T19:52:36.989Z,6.80
2019-06-01T19:55:09.015Z,6.42
2019-06-01T19:57:37.643Z,6.00
2019-06-01T20:00:07.230Z,5.67
2019-06-01T20:02:35.683Z,5.42
2019-06-01T20:05:06.385Z,5.20
2019-06-01T20:07:34.843Z,5.08
2019-06-01T20:10:05.216Z,5.08
2019-06-01T20:12:33.818Z,5.28
2019-06-01T20:15:02.267Z,5.15
2019-06-01T20:17:30.709Z,4.92
2019-06-01T20:19:59.209Z,4.67
2019-06-01T20:22:27.665Z,4.87
2019-06-01T20:24:56.204Z,4.80
2019-06-01T20:27:24.701Z,4.42
2019-06-01T20:29:53.150Z,4.50
2019-06-01T20:32:22.215Z,4.83
2019-06-01T20:34:50.925Z,4.70
2019-06-01T20:37:20.143Z,4.17
2019-06-01T20:39:48.745Z,4.80
2019-06-01T20:42:29.103Z,5.28
2019-06-01T20:44:47.553Z,5.00
2019-06-01T20:47:16.657Z,5.37
2019-06-01T20:49:45.292Z,4.72
2019-06-01T20:52:14.678Z,5.25
2019-06-01T20:54:43.437Z,7.70
2019-06-01T20:57:13.253Z,6.45
2019-06-01T20:59:41.820Z,7.17
2019-06-01T21:02:10.312Z,6.78
2019-06-01T21:04:38.775Z,6.42
2019-06-01T21:07:07.352Z,6.60
2019-06-01T21:09:35.799Z,7.12
2019-06-01T21:12:04.423Z,6.45
2019-06-01T21:14:32.913Z,6.22
2019-06-01T21:17:01.413Z,7.08
2019-06-01T21:19:29.859Z,6.50
2019-06-01T21:21:58.367Z,6.67
2019-06-01T21:24:26.823Z,6.62
2019-06-01T21:26:55.268Z,6.65
2019-06-01T21:29:25.071Z,6.80
2019-06-01T21:31:53.790Z,6.42
2019-06-01T21:34:23.581Z,6.62
2019-06-01T21:36:52.514Z,6.78
2019-06-01T21:39:21.695Z,6.55
2019-06-01T21:41:50.308Z,6.87
2019-06-01T21:44:19.473Z,6.37
2019-06-01T21:46:48.119Z,7.07
2019-06-01T21:49:17.658Z,7.03
2019-06-01T21:51:46.239Z,7.12
2019-06-01T21:54:15.933Z,7.25
2019-06-01T21:56:44.582Z,7.12
2019-06-01T21:59:13.024Z,7.67
2019-06-01T22:01:41.541Z,7.47
2019-06-01T22:04:10.077Z,6.92
2019-06-01T22:06:38.616Z,7.05
2019-06-01T22:09:07.408Z,7.47
2019-06-01T22:11:35.863Z,8.98
2019-06-01T22:14:04.809Z,7.70
2019-06-01T22:16:33.325Z,8.50
2019-06-01T22:19:01.776Z,8.88
2019-06-01T22:21:30.298Z,8.05
2019-06-01T22:23:58.827Z,10.00
2019-06-01T22:26:28.328Z,10.80
2019-06-01T22:28:57.037Z,9.78
2019-06-01T22:31:26.703Z,9.75
2019-06-01T22:33:55.451Z,10.25
2019-06-01T22:36:25.114Z,9.70
2019-06-01T22:38:53.794Z,9.45
2019-06-01T22:41:22.259Z,11.08
2019-06-01T22:43:50.771Z,10.30
2019-06-01T22:46:20.339Z,11.55
2019-06-01T22:48:48.967Z,12.30
2019-06-01T22:51:17.483Z,11.97
2019-06-01T22:53:45.934Z,11.63
2019-06-01T22:56:14.397Z,13.62
2019-06-01T22:58:42.884Z,15.35
2019-06-01T23:01:11.369Z,15.70
2019-06-01T23:03:39.835Z,18.17
2019-06-01T23:06:08.321Z,14.95
2019-06-01T23:08:36.801Z,17.35
2019-06-01T23:11:05.302Z,16.60
2019-06-01T23:13:33.768Z,14.90
2019-06-01T23:16:02.318Z,15.25
2019-06-01T23:18:31.925Z,14.87
2019-06-01T23:21:00.558Z,14.45
2019-06-01T23:23:30.158Z,13.15
2019-06-01T23:25:58.728Z,13.05
2019-06-01T23:28:28.558Z,14.20
2019-06-01T23:30:57.294Z,13.70
2019-06-01T23:33:26.953Z,12.63
2019-06-01T23:35:55.534Z,13.88
2019-06-01T23:38:24.539Z,13.13
2019-06-01T23:40:53.098Z,12.37
2019-06-01T23:43:22.686Z,12.10
2019-06-01T23:45:51.330Z,12.15
2019-06-01T23:48:19.937Z,11.55
2019-06-01T23:50:48.478Z,10.60
2019-06-01T23:53:16.979Z,11.35
2019-06-01T23:55:45.438Z,11.48
2019-06-01T23:58:13.962Z,11.73
